createdAt,value
2022-11-29T00:01:39.286Z,100625.34
2022-11-29T00:04:06.394Z,100628.63
2022-11-29T00:06:34.785Z,100633.13
2022-11-29T00:09:08.299Z,100624.47
2022-11-29T00:11:56.204Z,100615.28
2022-11-29T00:14:23.283Z,100610.69
2022-11-29T00:16:55.303Z,100609.50
2022-11-29T00:19:24.723Z,100609.72
2022-11-29T00:21:54.077Z,100604.94
2022-11-29T00:24:23.690Z,100603.13
2022-11-29T00:26:55.171Z,100601.06
2022-11-29T00:29:21.907Z,100603.28
2022-11-29T00:31:48.667Z,100600.13
2022-11-29T00:34:15.720Z,100596.31
2022-11-29T00:36:42.442Z,100587.19
2022-11-29T00:39:12.417Z,100597.94
2022-11-29T00:41:42.225Z,100595.59
2022-11-29T00:44:16.791Z,100590.81
2022-11-29T00:46:51.878Z,100589.41
2022-11-29T00:49:18.595Z,100592.50
2022-11-29T00:51:45.906Z,100592.91
2022-11-29T00:54:12.757Z,100589.09
2022-11-29T00:56:39.715Z,100588.13
2022-11-29T00:59:08.846Z,100583.47
2022-11-29T01:01:37.846Z,100582.03
2022-11-29T01:04:07.184Z,100579.97
2022-11-29T01:06:36.414Z,100580.34
2022-11-29T01:09:03.778Z,100579.59
2022-11-29T01:11:33.237Z,100582.03
2022-11-29T01:14:03.150Z,100581.47
2022-11-29T01:16:32.422Z,100574.91
2022-11-29T01:19:01.454Z,100578.78
2022-11-29T01:21:28.587Z,100576.25
2022-11-29T01:23:55.624Z,100575.63
2022-11-29T01:26:25.426Z,100578.16
2022-11-29T01:28:54.061Z,100576.94
2022-11-29T01:31:32.193Z,100571.25
2022-11-29T01:34:02.223Z,100578.06
2022-11-29T01:36:29.564Z,100573.78
2022-11-29T01:38:59.234Z,100576.25
2022-11-29T01:41:28.250Z,100567.06
2022-11-29T01:43:59.929Z,100565.72
2022-11-29T01:46:32.074Z,100567.59
2022-11-29T01:49:20.336Z,100576.03
2022-11-29T01:52:04.074Z,100569.56
2022-11-29T01:54:32.461Z,100570.44
2022-11-29T01:57:02.616Z,100576.56
2022-11-29T01:59:32.139Z,100576.50
2022-11-29T02:02:12.512Z,100570.78
2022-11-29T02:04:44.162Z,100579.34
2022-11-29T02:07:13.947Z,100574.28
2022-11-29T02:09:40.701Z,100566.84
2022-11-29T02:12:33.435Z,100573.72
2022-11-29T02:15:06.956Z,100581.56
2022-11-29T02:18:12.793Z,100578.63
2022-11-29T02:21:07.485Z,100581.72
2022-11-29T02:23:52.494Z,100582.75
2022-11-29T02:26:28.173Z,100589.91
2022-11-29T02:29:32.037Z,100590.28
2022-11-29T02:32:20.602Z,100595.59
2022-11-29T02:35:00.714Z,100594.25
2022-11-29T02:37:50.948Z,100595.91
2022-11-29T02:40:57.218Z,100590.34
2022-11-29T02:43:42.137Z,100594.72
2022-11-29T02:46:11.818Z,100590.28
2022-11-29T02:48:58.052Z,100596.19
2022-11-29T02:51:50.877Z,100586.97
2022-11-29T02:54:29.929Z,100586.63
2022-11-29T02:57:02.182Z,100587.28
2022-11-29T02:59:59.670Z,100587.19
2022-11-29T03:02:43.422Z,100595.38
2022-11-29T03:05:09.902Z,100584.34
2022-11-29T03:07:51.978Z,100586.72
2022-11-29T03:10:38.159Z,100585.63
2022-11-29T03:13:20.271Z,100586.78
2022-11-29T03:16:23.355Z,100585.28
2022-11-29T03:18:56.247Z,100592.66
2022-11-29T03:21:22.769Z,100590.44
2022-11-29T03:24:02.162Z,100591.72
2022-11-29T03:26:40.718Z,100588.91
2022-11-29T03:29:16.198Z,100589.00
2022-11-29T03:31:52.817Z,100587.34
2022-11-29T03:34:52.993Z,100592.66
2022-11-29T03:37:57.786Z,100593.28
2022-11-29T03:40:48.869Z,100598.75
2022-11-29T03:43:37.223Z,100594.38
2022-11-29T03:46:12.543Z,100595.56
2022-11-29T03:49:01.545Z,100595.44
2022-11-29T03:51:54.669Z,100602.44
2022-11-29T03:54:43.218Z,100600.34
2022-11-29T03:57:14.069Z,100612.97
2022-11-29T04:00:10.896Z,100610.22
2022-11-29T04:02:37.422Z,100618.25
2022-11-29T04:05:31.011Z,100614.13
2022-11-29T04:08:07.313Z,100611.03
2022-11-29T04:11:12.100Z,100614.94
2022-11-29T04:13:53.479Z,100613.06
2022-11-29T04:16:25.302Z,100618.81
2022-11-29T04:19:21.061Z,100617.84
2022-11-29T04:22:14.658Z,100618.41
2022-11-29T04:25:02.377Z,100616.09
2022-11-29T04:27:38.711Z,100618.03
2022-11-29T04:30:13.939Z,100620.00
2022-11-29T04:33:17.876Z,100613.66
2022-11-29T04:36:28.916Z,100625.25
2022-11-29T04:39:26.580Z,100622.22
2022-11-29T04:42:11.766Z,100613.75
2022-11-29T04:45:19.235Z,100624.50
2022-11-29T04:48:04.085Z,100622.13
2022-11-29T04:50:58.162Z,100622.09
2022-11-29T04:53:24.546Z,100628.38
2022-11-29T04:56:28.494Z,100640.56
2022-11-29T04:59:10.050Z,100642.00
2022-11-29T05:02:08.644Z,100643.38
2022-11-29T05:04:55.457Z,100647.06
2022-11-29T05:07:31.502Z,100653.69
2022-11-29T05:10:03.657Z,100653.50
2022-11-29T05:12:38.749Z,100665.78
2022-11-29T05:15:35.177Z,100666.94
2022-11-29T05:18:42.068Z,100664.41
2022-11-29T05:21:20.527Z,100663.69
2022-11-29T05:24:20.109Z,100670.25
2022-11-29T05:27:15.294Z,100655.63
2022-11-29T05:30:11.346Z,100660.50
2022-11-29T05:32:56.943Z,100656.78
2022-11-29T05:35:47.866Z,100660.63
2022-11-29T05:38:40.500Z,100670.25
2022-11-29T05:41:31.460Z,100669.22
2022-11-29T05:44:15.935Z,100667.47
2022-11-29T05:46:48.244Z,100677.75
2022-11-29T05:49:33.516Z,100671.03
2022-11-29T05:52:20.760Z,100668.09
2022-11-29T05:55:17.264Z,100671.59
2022-11-29T05:57:55.397Z,100670.19
2022-11-29T06:00:26.919Z,100671.53
2022-11-29T06:02:59.826Z,100670.34
2022-11-29T06:05:40.364Z,100673.38
2022-11-29T06:08:22.719Z,100676.69
2022-11-29T06:11:00.964Z,100682.13
2022-11-29T06:13:47.189Z,100684.59
2022-11-29T06:16:32.806Z,100687.28
2022-11-29T06:19:25.408Z,100685.63
2022-11-29T06:22:39.902Z,100692.53
2022-11-29T06:25:18.718Z,100692.16
2022-11-29T06:28:02.238Z,100693.03
2022-11-29T06:31:00.710Z,100691.88
2022-11-29T06:33:35.498Z,100696.63
2022-11-29T06:36:20.218Z,100697.22
2022-11-29T06:38:49.580Z,100705.00
2022-11-29T06:41:22.970Z,100705.38
2022-11-29T06:43:53.323Z,100693.06
2022-11-29T06:46:29.200Z,100701.63
2022-11-29T06:49:02.523Z,100699.66
2022-11-29T06:51:33.381Z,100698.22
2022-11-29T06:54:31.871Z,100708.44
2022-11-29T06:57:35.659Z,100711.56
2022-11-29T07:00:12.673Z,100705.69
2022-11-29T07:02:48.419Z,100706.47
2022-11-29T07:05:29.426Z,100701.22
2022-11-29T07:08:03.584Z,100704.72
2022-11-29T07:10:36.174Z,100700.84
2022-11-29T07:13:05.533Z,100708.63
2022-11-29T07:15:39.370Z,100713.69
2022-11-29T07:18:10.856Z,100706.47
2022-11-29T07:20:59.074Z,100711.56
2022-11-29T07:23:31.306Z,100710.19
2022-11-29T07:26:14.980Z,100714.28
2022-11-29T07:28:47.782Z,100708.25
2022-11-29T07:31:25.143Z,100704.16
2022-11-29T07:34:24.167Z,100711.34
2022-11-29T07:37:02.139Z,100711.75
2022-11-29T07:39:43.386Z,100717.19
2022-11-29T07:42:26.494Z,100717.78
2022-11-29T07:45:01.722Z,100722.75
2022-11-29T07:47:32.576Z,100717.69
2022-11-29T07:50:07.215Z,100727.69
2022-11-29T07:52:33.798Z,100724.59
2022-11-29T07:55:02.607Z,100720.31
2022-11-29T07:57:29.150Z,100727.44
2022-11-29T07:59:57.920Z,100724.41
2022-11-29T08:02:31.815Z,100731.94
2022-11-29T08:04:58.640Z,100712.94
2022-11-29T08:07:27.832Z,100715.84
2022-11-29T08:09:54.365Z,100716.63
2022-11-29T08:12:23.621Z,100719.34
2022-11-29T08:14:52.508Z,100712.34
2022-11-29T08:17:19.110Z,100715.47
2022-11-29T08:19:45.671Z,100719.94
2022-11-29T08:22:14.786Z,100716.03
2022-11-29T08:24:41.388Z,100716.16
2022-11-29T08:27:07.973Z,100719.00
2022-11-29T08:29:34.583Z,100713.53
2022-11-29T08:32:06.356Z,100715.28
2022-11-29T08:34:32.925Z,100726.41
2022-11-29T08:37:01.799Z,100725.72
2022-11-29T08:39:28.410Z,100716.06
2022-11-29T08:41:55.040Z,100722.97
2022-11-29T08:44:21.867Z,100717.50
2022-11-29T08:47:07.160Z,100723.47
2022-11-29T08:49:33.765Z,100731.16
2022-11-29T08:52:18.992Z,100728.72
2022-11-29T08:54:48.144Z,100726.56
2022-11-29T08:57:39.309Z,100720.25
2022-11-29T09:00:01.259Z,100719.28
2022-11-29T09:02:27.858Z,100724.25
2022-11-29T09:04:56.582Z,100727.94
2022-11-29T09:07:23.353Z,100726.19
2022-11-29T09:09:54.825Z,100716.06
2022-11-29T09:12:23.865Z,100711.38
2022-11-29T09:14:53.012Z,100702.22
2022-11-29T09:17:19.521Z,100700.25
2022-11-29T09:19:49.139Z,100705.84
2022-11-29T09:22:18.334Z,100700.56
2022-11-29T09:24:47.680Z,100704.66
2022-11-29T09:27:16.556Z,100701.06
2022-11-29T09:29:43.088Z,100693.66
2022-11-29T09:32:09.856Z,100696.69
2022-11-29T09:34:36.891Z,100693.81
2022-11-29T09:37:05.831Z,100697.72
2022-11-29T09:39:34.628Z,100693.44
2022-11-29T09:42:12.548Z,100694.00
2022-11-29T09:44:48.372Z,100694.41
2022-11-29T09:47:17.705Z,100695.56
2022-11-29T09:50:08.832Z,100697.91
2022-11-29T09:52:59.104Z,100696.72
2022-11-29T09:55:47.748Z,100701.13
2022-11-29T09:58:20.856Z,100694.00
2022-11-29T10:01:05.355Z,100684.94
2022-11-29T10:03:38.595Z,100687.56
2022-11-29T10:06:24.433Z,100678.78
2022-11-29T10:09:06.178Z,100676.25
2022-11-29T10:12:09.922Z,100668.72
2022-11-29T10:14:46.127Z,100668.59
2022-11-29T10:17:21.004Z,100664.41
2022-11-29T10:19:52.992Z,100667.50
2022-11-29T10:22:38.295Z,100669.25
2022-11-29T10:25:10.418Z,100661.66
2022-11-29T10:27:40.311Z,100664.00
2022-11-29T10:30:16.015Z,100666.53
2022-11-29T10:32:48.533Z,100664.47
2022-11-29T10:35:19.443Z,100663.59
2022-11-29T10:38:22.698Z,100658.56
2022-11-29T10:40:41.893Z,100664.16
2022-11-29T10:43:09.100Z,100655.34
2022-11-29T10:45:40.502Z,100665.09
2022-11-29T10:48:11.953Z,100657.94
2022-11-29T10:50:42.777Z,100655.78
2022-11-29T10:53:31.543Z,100652.63
2022-11-29T10:56:19.064Z,100653.03
2022-11-29T10:59:03.230Z,100656.75
2022-11-29T11:01:37.459Z,100651.13
2022-11-29T11:04:10.911Z,100651.53
2022-11-29T11:06:55.779Z,100645.25
2022-11-29T11:09:42.520Z,100650.06
2022-11-29T11:12:15.031Z,100655.78
2022-11-29T11:14:45.751Z,100658.28
2022-11-29T11:17:32.869Z,100651.75
2022-11-29T11:20:08.465Z,100649.88
2022-11-29T11:22:39.299Z,100651.41
2022-11-29T11:25:27.792Z,100656.53
2022-11-29T11:27:54.518Z,100646.94
2022-11-29T11:30:27.567Z,100650.00
2022-11-29T11:33:24.473Z,100651.84
2022-11-29T11:36:09.854Z,100651.44
2022-11-29T11:38:46.994Z,100647.00
2022-11-29T11:41:48.725Z,100657.16
2022-11-29T11:44:49.692Z,100654.78
2022-11-29T11:47:18.519Z,100656.59
2022-11-29T11:49:54.613Z,100654.97
2022-11-29T11:52:27.708Z,100651.59
2022-11-29T11:54:57.987Z,100650.31
2022-11-29T11:57:28.471Z,100652.97
2022-11-29T12:00:06.486Z,100648.63
2022-11-29T12:02:41.076Z,100650.13
2022-11-29T12:05:18.314Z,100649.06
2022-11-29T12:08:08.972Z,100654.44
2022-11-29T12:10:42.470Z,100647.56
2022-11-29T12:13:20.876Z,100644.22
2022-11-29T12:15:51.272Z,100647.22
2022-11-29T12:18:38.082Z,100646.97
2022-11-29T12:21:15.078Z,100646.53
2022-11-29T12:24:00.329Z,100649.16
2022-11-29T12:26:56.558Z,100640.16
2022-11-29T12:29:27.642Z,100641.81
2022-11-29T12:32:33.258Z,100640.59
2022-11-29T12:35:21.098Z,100629.50
2022-11-29T12:37:50.644Z,100635.16
2022-11-29T12:40:33.525Z,100641.03
2022-11-29T12:43:15.403Z,100631.72
2022-11-29T12:45:56.007Z,100633.56
2022-11-29T12:48:41.427Z,100630.41
2022-11-29T12:51:26.289Z,100635.25
2022-11-29T12:54:12.705Z,100625.97
2022-11-29T12:56:54.389Z,100632.16
2022-11-29T12:59:39.973Z,100625.16
2022-11-29T13:02:21.521Z,100630.06
2022-11-29T13:05:22.573Z,100626.41
2022-11-29T13:08:00.501Z,100619.22
2022-11-29T13:11:06.164Z,100629.00
2022-11-29T13:13:44.096Z,100627.53
2022-11-29T13:16:48.227Z,100627.44
2022-11-29T13:19:37.824Z,100623.41
2022-11-29T13:22:18.885Z,100624.47
2022-11-29T13:25:01.343Z,100628.84
2022-11-29T13:27:40.148Z,100635.13
2022-11-29T13:30:09.503Z,100630.25
2022-11-29T13:32:36.381Z,100628.84
2022-11-29T13:35:30.868Z,100632.50
2022-11-29T13:38:04.072Z,100626.63
2022-11-29T13:40:56.659Z,100629.38
2022-11-29T13:43:49.208Z,100629.88
2022-11-29T13:47:02.544Z,100624.81
2022-11-29T13:50:26.289Z,100627.25
2022-11-29T13:53:19.286Z,100634.69
2022-11-29T13:56:06.569Z,100637.78
2022-11-29T13:58:37.557Z,100636.88
2022-11-29T14:01:12.956Z,100634.88
2022-11-29T14:04:00.715Z,100633.53
2022-11-29T14:06:36.474Z,100634.25
2022-11-29T14:09:20.767Z,100637.44
2022-11-29T14:11:52.778Z,100639.53
2022-11-29T14:14:24.624Z,100636.38
2022-11-29T14:16:55.869Z,100637.94
2022-11-29T14:19:34.910Z,100636.91
2022-11-29T14:22:09.772Z,100637.78
2022-11-29T14:24:38.713Z,100629.72
2022-11-29T14:27:16.771Z,100627.00
2022-11-29T14:29:58.771Z,100636.38
2022-11-29T14:32:59.696Z,100634.19
2022-11-29T14:35:37.718Z,100629.69
2022-11-29T14:38:36.481Z,100631.28
2022-11-29T14:41:14.035Z,100626.91
2022-11-29T14:43:43.420Z,100634.44
2022-11-29T14:46:16.270Z,100634.97
2022-11-29T14:48:55.236Z,100630.16
2022-11-29T14:51:24.390Z,100630.97
2022-11-29T14:54:22.120Z,100639.16
2022-11-29T14:56:51.122Z,100633.38
2022-11-29T14:59:45.958Z,100632.66
2022-11-29T15:02:21.840Z,100639.06
2022-11-29T15:04:52.161Z,100630.75
2022-11-29T15:07:25.520Z,100640.38
2022-11-29T15:10:00.515Z,100635.25
2022-11-29T15:12:38.243Z,100637.94
2022-11-29T15:15:21.730Z,100629.91
2022-11-29T15:17:59.260Z,100627.63
2022-11-29T15:20:55.640Z,100624.38
2022-11-29T15:23:22.192Z,100626.91
2022-11-29T15:25:51.676Z,100629.72
2022-11-29T15:28:25.175Z,100631.22
2022-11-29T15:31:09.310Z,100635.53
2022-11-29T15:33:41.193Z,100633.03
2022-11-29T15:36:22.153Z,100633.63
2022-11-29T15:38:49.900Z,100627.97
2022-11-29T15:41:34.722Z,100626.53
2022-11-29T15:44:06.764Z,100625.84
2022-11-29T15:46:37.589Z,100626.56
2022-11-29T15:49:28.417Z,100623.13
2022-11-29T15:52:05.696Z,100619.03
2022-11-29T15:54:34.854Z,100618.84
2022-11-29T15:57:16.758Z,100615.00
2022-11-29T15:59:51.141Z,100627.09
2022-11-29T16:02:19.883Z,100627.25
2022-11-29T16:04:51.422Z,100641.28
2022-11-29T16:07:21.957Z,100637.16
2022-11-29T16:09:57.653Z,100642.03
2022-11-29T16:12:24.782Z,100644.56
2022-11-29T16:14:56.505Z,100648.44
2022-11-29T16:17:29.733Z,100652.38
2022-11-29T16:20:23.508Z,100645.34
2022-11-29T16:23:16.898Z,100654.91
2022-11-29T16:25:56.218Z,100651.06
2022-11-29T16:28:25.470Z,100641.47
2022-11-29T16:30:54.957Z,100649.69
2022-11-29T16:33:24.426Z,100648.44
2022-11-29T16:35:51.783Z,100647.94
2022-11-29T16:38:21.935Z,100649.75
2022-11-29T16:41:20.101Z,100657.03
2022-11-29T16:43:54.239Z,100660.91
2022-11-29T16:46:20.785Z,100670.44
2022-11-29T16:48:51.591Z,100669.84
2022-11-29T16:51:27.089Z,100674.28
2022-11-29T16:53:57.603Z,100670.69
2022-11-29T16:56:29.431Z,100675.97
2022-11-29T16:59:20.710Z,100677.88
2022-11-29T17:01:51.344Z,100682.84
2022-11-29T17:04:23.751Z,100682.50
2022-11-29T17:06:52.994Z,100682.22
2022-11-29T17:09:23.502Z,100685.94
2022-11-29T17:11:50.236Z,100687.41
2022-11-29T17:14:19.191Z,100692.69
2022-11-29T17:16:52.044Z,100691.88
2022-11-29T17:19:23.821Z,100693.13
2022-11-29T17:21:54.051Z,100692.69
2022-11-29T17:24:24.827Z,100692.97
2022-11-29T17:26:51.373Z,100692.00
2022-11-29T17:29:20.755Z,100691.22
2022-11-29T17:31:47.815Z,100693.38
2022-11-29T17:34:17.050Z,100703.91
2022-11-29T17:36:46.923Z,100698.56
2022-11-29T17:39:20.009Z,100692.97
2022-11-29T17:41:46.668Z,100689.47
2022-11-29T17:44:18.172Z,100686.47
2022-11-29T17:46:45.007Z,100695.13
2022-11-29T17:49:18.682Z,100694.97
2022-11-29T17:51:53.461Z,100697.34
2022-11-29T17:54:21.692Z,100695.13
2022-11-29T17:56:48.487Z,100694.34
2022-11-29T17:59:21.141Z,100699.44
2022-11-29T18:01:52.915Z,100691.19
2022-11-29T18:04:22.157Z,100685.41
2022-11-29T18:06:53.719Z,100686.03
2022-11-29T18:09:20.297Z,100686.28
2022-11-29T18:11:50.937Z,100686.81
2022-11-29T18:14:23.730Z,100683.41
2022-11-29T18:16:51.523Z,100685.41
2022-11-29T18:19:22.596Z,100682.97
2022-11-29T18:21:50.344Z,100688.25
2022-11-29T18:24:17.365Z,100687.69
2022-11-29T18:26:46.521Z,100687.34
2022-11-29T18:29:13.451Z,100695.59
2022-11-29T18:31:42.672Z,100692.41
2022-11-29T18:34:11.035Z,100702.41
2022-11-29T18:36:44.407Z,100705.75
2022-11-29T18:39:15.737Z,100697.44
2022-11-29T18:41:44.926Z,100703.03
2022-11-29T18:44:14.415Z,100695.91
2022-11-29T18:46:45.731Z,100697.69
2022-11-29T18:49:15.402Z,100700.13
2022-11-29T18:51:48.060Z,100693.88
2022-11-29T18:54:18.336Z,100698.09
2022-11-29T18:56:46.105Z,100702.59
2022-11-29T18:59:16.801Z,100708.75
2022-11-29T19:01:48.256Z,100705.03
2022-11-29T19:04:19.283Z,100705.31
2022-11-29T19:06:49.458Z,100702.94
2022-11-29T19:09:21.785Z,100702.41
2022-11-29T19:11:51.220Z,100700.66
2022-11-29T19:14:21.495Z,100691.75
2022-11-29T19:16:49.401Z,100689.72
2022-11-29T19:19:21.360Z,100706.78
2022-11-29T19:21:48.371Z,100696.09
2022-11-29T19:24:17.643Z,100697.84
2022-11-29T19:26:46.410Z,100701.97
2022-11-29T19:29:14.204Z,100704.00
2022-11-29T19:31:41.900Z,100715.19
2022-11-29T19:34:11.554Z,100714.16
2022-11-29T19:36:43.042Z,100710.47
2022-11-29T19:39:12.223Z,100705.91
2022-11-29T19:41:39.059Z,100708.19
2022-11-29T19:44:07.798Z,100720.63
2022-11-29T19:46:38.992Z,100706.09
2022-11-29T19:49:09.889Z,100706.63
2022-11-29T19:51:37.491Z,100706.97
2022-11-29T19:54:07.269Z,100704.34
2022-11-29T19:56:42.321Z,100700.22
2022-11-29T19:59:11.378Z,100701.72
2022-11-29T20:01:41.541Z,100699.78
2022-11-29T20:04:10.645Z,100699.00
2022-11-29T20:06:37.368Z,100693.66
2022-11-29T20:09:04.128Z,100699.78
2022-11-29T20:11:30.770Z,100692.97
2022-11-29T20:14:02.208Z,100688.03
2022-11-29T20:16:31.708Z,100698.13
2022-11-29T20:19:02.110Z,100690.84
2022-11-29T20:21:32.962Z,100677.16
2022-11-29T20:24:05.484Z,100677.69
2022-11-29T20:26:34.359Z,100695.94
2022-11-29T20:29:03.763Z,100694.44
2022-11-29T20:31:31.665Z,100690.91
2022-11-29T20:33:58.747Z,100682.06
2022-11-29T20:36:38.221Z,100693.31
2022-11-29T20:39:36.931Z,100690.31
2022-11-29T20:42:34.388Z,100684.72
2022-11-29T20:45:02.666Z,100698.75
2022-11-29T20:47:44.535Z,100690.84
2022-11-29T20:50:23.119Z,100691.03
2022-11-29T20:52:57.024Z,100681.38
2022-11-29T20:55:23.789Z,100685.22
2022-11-29T20:57:52.626Z,100678.75
2022-11-29T21:00:19.871Z,100682.78
2022-11-29T21:02:48.868Z,100685.50
2022-11-29T21:05:16.845Z,100671.66
2022-11-29T21:07:44.024Z,100684.88
2022-11-29T21:10:11.126Z,100691.19
2022-11-29T21:12:40.903Z,100686.31
2022-11-29T21:15:11.061Z,100690.16
2022-11-29T21:17:38.065Z,100694.19
2022-11-29T21:20:05.743Z,100692.75
2022-11-29T21:22:38.439Z,100687.84
2022-11-29T21:25:40.074Z,100684.72
2022-11-29T21:28:14.200Z,100692.50
2022-11-29T21:30:44.124Z,100694.16
2022-11-29T21:33:13.531Z,100695.19
2022-11-29T21:35:40.266Z,100692.13
2022-11-29T21:38:13.450Z,100692.13
2022-11-29T21:40:40.157Z,100693.28
2022-11-29T21:43:09.831Z,100697.50
2022-11-29T21:45:39.431Z,100696.25
2022-11-29T21:48:38.507Z,100698.88
2022-11-29T21:51:09.233Z,100696.63
2022-11-29T21:53:39.168Z,100689.59
2022-11-29T21:56:10.483Z,100694.38
2022-11-29T21:58:40.410Z,100695.03
2022-11-29T22:01:10.486Z,100699.41
2022-11-29T22:03:37.160Z,100701.50
2022-11-29T22:06:09.635Z,100694.81
2022-11-29T22:08:43.520Z,100694.72
2022-11-29T22:11:12.606Z,100686.44
2022-11-29T22:13:59.483Z,100683.63
2022-11-29T22:16:26.261Z,100687.81
2022-11-29T22:18:55.531Z,100691.31
2022-11-29T22:21:22.438Z,100693.88
2022-11-29T22:23:49.280Z,100684.66
2022-11-29T22:26:16.043Z,100689.69
2022-11-29T22:28:47.448Z,100693.22
2022-11-29T22:31:16.488Z,100687.75
2022-11-29T22:33:43.158Z,100687.25
2022-11-29T22:36:14.215Z,100689.72
2022-11-29T22:38:45.772Z,100685.94
2022-11-29T22:41:18.678Z,100683.78
2022-11-29T22:43:48.510Z,100678.72
2022-11-29T22:46:23.969Z,100677.06
2022-11-29T22:49:00.874Z,100679.00
2022-11-29T22:51:29.021Z,100681.34
2022-11-29T22:53:57.730Z,100670.38
2022-11-29T22:56:27.213Z,100665.91
2022-11-29T22:58:53.749Z,100662.78
2022-11-29T23:01:27.669Z,100661.09
2022-11-29T23:03:57.069Z,100662.91
2022-11-29T23:06:28.527Z,100666.97
2022-11-29T23:09:00.176Z,100662.94
2022-11-29T23:11:30.574Z,100662.94
2022-11-29T23:13:59.699Z,100651.53
2022-11-29T23:16:29.287Z,100654.88
2022-11-29T23:19:00.287Z,100659.72
2022-11-29T23:21:35.965Z,100655.56
2022-11-29T23:24:05.287Z,100651.97
2022-11-29T23:26:40.203Z,100651.13
2022-11-29T23:29:09.287Z,100652.88
2022-11-29T23:31:39.214Z,100660.59
2022-11-29T23:34:08.334Z,100651.13
2022-11-29T23:36:37.269Z,100652.88
2022-11-29T23:39:09.895Z,100650.09
2022-11-29T23:41:36.896Z,100650.75
2022-11-29T23:44:08.773Z,100651.78
2022-11-29T23:46:40.592Z,100659.28
2022-11-29T23:49:07.811Z,100661.25
2022-11-29T23:51:36.433Z,100661.31
2022-11-29T23:54:05.381Z,100663.72
2022-11-29T23:56:36.987Z,100660.00
2022-11-29T23:59:08.283Z,100659.28
